Ashby, Minnesota
Current Conditions -  °F | °C
As of 12:35 AM on Tuesday 21 Oct 2014 (Local Time) from KY63 Reporting Station
Clear Clear  
Wind Chill: 40°   Ceiling: Unl
Heat Index: 45°   Visibility: 10mi
Dew Point: 38°   Wind: 10mph
Humidity: 77%   Direction: 110°ESE
Pressure: 30.07"   Gusts: NA
Location:  46.09°N, 95.82°W
Report Text: KY63 210535Z AUTO 11009KT 10SM CLR 07/03 A3007 RMK AO2 T00720034
Loading
Personal Weather Stations






























Interactive Weather Map
Tropical Storm Tracking
New forecast layout! Learn more

10-Day Weather Forecast

Advertisements
Track Severe Weather on mobile